Time;durP1;ratioP1;P1;durP2;ratioP2;P2;SDS_P1;SDS_P2;PMS_P1;PMS_P2;Temp;Humidity;BMP_temperature;BMP_pressure;BME280_temperature;BME280_humidity;BME280_pressure;Samples;Min_cycle;Max_cycle;Signal;HPM_P1;HPM_P2
2021/07/17 00:00:13;;;;;;;16.35;7.35;;;;;;;17.67;82.17;102501.81;5095262;28;20052;-58
2021/07/17 00:02:40;;;;;;;21.48;7.18;;;;;;;17.64;81.82;102505.56;5094539;28;20079;-58
2021/07/17 00:05:09;;;;;;;20.00;7.55;;;;;;;17.59;81.72;102505.00;5093824;28;20050;-58
2021/07/17 00:07:36;;;;;;;22.88;7.40;;;;;;;17.53;81.95;102508.09;5093246;28;20032;-58
2021/07/17 00:10:14;;;;;;;19.55;6.72;;;;;;;17.62;81.71;102512.78;5094092;28;20445;-58
2021/07/17 00:12:42;;;;;;;17.35;6.68;;;;;;;17.63;81.94;102513.63;5093941;28;20070;-58
2021/07/17 00:15:12;;;;;;;19.45;7.25;;;;;;;17.64;82.01;102517.97;5094417;28;20043;-57
2021/07/17 00:17:40;;;;;;;19.85;7.30;;;;;;;17.62;81.80;102514.59;5095651;28;20044;-57
2021/07/17 00:20:08;;;;;;;18.67;7.13;;;;;;;17.66;81.94;102518.75;5093602;28;20106;-58
2021/07/17 00:22:35;;;;;;;19.50;7.45;;;;;;;17.57;82.19;102506.91;5075366;28;20047;-58
2021/07/17 00:25:15;;;;;;;18.42;7.10;;;;;;;17.58;82.19;102512.13;5093583;28;20052;-53
2021/07/17 00:27:43;;;;;;;22.20;7.97;;;;;;;17.51;82.14;102508.19;5094186;28;20054;-51
2021/07/17 00:30:11;;;;;;;20.48;7.22;;;;;;;17.50;82.64;102511.81;5095236;28;20052;-58
2021/07/17 00:32:37;;;;;;;21.15;6.95;;;;;;;17.48;82.50;102508.41;5094302;28;20051;-57
2021/07/17 00:35:06;;;;;;;18.00;6.93;;;;;;;17.47;82.42;102519.16;5093845;28;20494;-58
2021/07/17 00:37:33;;;;;;;19.33;7.63;;;;;;;17.43;82.52;102515.84;5091731;28;20402;-58
2021/07/17 00:40:01;;;;;;;17.45;6.38;;;;;;;17.42;82.61;102515.94;5092998;28;20425;-58
2021/07/17 00:42:30;;;;;;;19.25;7.18;;;;;;;17.42;82.69;102513.28;5095313;28;20040;-58
2021/07/17 00:44:57;;;;;;;16.90;6.47;;;;;;;17.47;82.75;102508.53;5092881;28;20052;-58
2021/07/17 00:47:29;;;;;;;19.88;6.63;;;;;;;17.41;82.79;102507.13;5091434;28;20111;-58
2021/07/17 00:49:56;;;;;;;18.10;6.85;;;;;;;17.47;82.72;102503.19;5093148;28;20052;-58
2021/07/17 00:52:23;;;;;;;18.85;7.35;;;;;;;17.35;82.85;102511.03;5094905;28;20056;-58
2021/07/17 00:54:50;;;;;;;17.13;6.72;;;;;;;17.36;82.95;102502.09;5094699;28;20052;-58
2021/07/17 00:57:17;;;;;;;20.27;7.40;;;;;;;17.39;83.04;102509.03;5092396;28;20040;-58
2021/07/17 00:59:46;;;;;;;18.90;7.07;;;;;;;17.44;82.97;102504.25;5091776;28;20048;-57
2021/07/17 01:02:14;;;;;;;20.70;7.93;;;;;;;17.38;82.92;102513.50;5093438;28;20388;-58
2021/07/17 01:04:41;;;;;;;21.67;7.78;;;;;;;17.35;83.06;102513.69;5076943;28;20105;-57
2021/07/17 01:07:09;;;;;;;18.80;7.53;;;;;;;17.33;82.91;102512.09;5094862;28;20420;-58
2021/07/17 01:09:35;;;;;;;19.33;7.25;;;;;;;17.33;83.22;102509.44;5093407;28;20446;-58
2021/07/17 01:12:03;;;;;;;21.77;6.80;;;;;;;17.26;83.33;102517.00;5092091;28;20051;-58
2021/07/17 01:14:30;;;;;;;20.85;8.32;;;;;;;17.17;83.28;102507.81;5093675;28;20079;-58
2021/07/17 01:16:57;;;;;;;19.50;7.60;;;;;;;17.21;83.98;102519.09;5093568;28;20056;-58
2021/07/17 01:19:25;;;;;;;20.08;7.13;;;;;;;17.25;83.50;102517.94;5094445;28;20491;-58
2021/07/17 01:21:52;;;;;;;19.05;7.43;;;;;;;17.14;83.73;102521.31;5093308;28;20052;-58
2021/07/17 01:24:22;;;;;;;19.77;7.22;;;;;;;17.19;83.52;102513.03;5093324;28;20071;-58
2021/07/17 01:26:50;;;;;;;20.90;8.10;;;;;;;17.13;83.32;102518.78;5094508;28;20077;-58
2021/07/17 01:29:18;;;;;;;17.42;8.02;;;;;;;17.13;83.21;102518.78;5093029;28;20044;-58
2021/07/17 01:31:45;;;;;;;19.33;8.10;;;;;;;17.21;82.85;102521.75;5090057;28;20052;-58
2021/07/17 01:34:12;;;;;;;20.17;7.65;;;;;;;17.10;83.24;102519.81;5090509;28;20105;-58
2021/07/17 01:36:39;;;;;;;19.15;7.75;;;;;;;17.09;83.30;102522.59;5093789;28;20044;-57
2021/07/17 01:39:06;;;;;;;21.00;6.97;;;;;;;17.15;83.18;102524.81;5091268;28;20426;-58
2021/07/17 01:41:33;;;;;;;18.95;7.50;;;;;;;17.10;82.33;102517.16;5092929;28;20043;-57
2021/07/17 01:43:59;;;;;;;23.08;8.00;;;;;;;17.12;82.79;102522.38;5094019;28;20044;-58
2021/07/17 01:46:30;;;;;;;16.90;7.60;;;;;;;17.13;82.48;102513.44;5089642;28;20126;-57
2021/07/17 01:48:57;;;;;;;17.58;7.95;;;;;;;17.10;82.26;102508.31;5091779;28;20482;-58
2021/07/17 01:51:24;;;;;;;18.60;7.40;;;;;;;17.08;81.92;102504.94;5092666;28;20044;-58
2021/07/17 01:53:55;;;;;;;20.58;7.72;;;;;;;17.00;82.00;102511.63;5092578;28;20040;-58
2021/07/17 01:56:26;;;;;;;19.02;7.15;;;;;;;17.09;82.38;102506.63;5093686;28;20563;-58
2021/07/17 01:58:56;;;;;;;21.20;6.72;;;;;;;17.08;82.23;102503.09;5091460;28;20040;-53
2021/07/17 02:01:24;;;;;;;19.52;8.30;;;;;;;17.03;82.16;102503.44;5088855;28;20475;-51
2021/07/17 02:03:52;;;;;;;20.90;7.65;;;;;;;17.06;82.33;102499.72;5093324;28;20044;-49
2021/07/17 02:06:27;;;;;;;19.50;6.97;;;;;;;17.04;82.23;102502.47;5106113;28;20047;-50
2021/07/17 02:08:54;;;;;;;20.08;7.28;;;;;;;17.02;82.30;102501.72;5083642;28;20059;-50
2021/07/17 02:11:21;;;;;;;14.75;6.75;;;;;;;17.00;82.58;102500.97;5100665;28;20566;-52
2021/07/17 02:13:53;;;;;;;19.83;7.25;;;;;;;16.92;82.47;102505.09;5102295;28;20491;-50
2021/07/17 02:16:21;;;;;;;19.98;7.13;;;;;;;16.90;82.59;102502.53;5086880;28;20047;-49
2021/07/17 02:18:49;;;;;;;18.38;7.22;;;;;;;16.89;82.76;102501.69;5103620;28;20058;-51
2021/07/17 02:21:16;;;;;;;24.05;7.47;;;;;;;16.88;82.91;102504.41;5106319;28;20040;-49
2021/07/17 02:23:44;;;;;;;21.42;7.38;;;;;;;16.86;83.17;102501.00;5101969;28;20490;-50
2021/07/17 02:26:11;;;;;;;18.17;7.10;;;;;;;16.84;83.13;102501.09;5108427;28;20101;-51
2021/07/17 02:28:39;;;;;;;19.20;6.90;;;;;;;16.89;83.13;102496.38;5108355;28;20039;-50
2021/07/17 02:31:06;;;;;;;21.20;7.88;;;;;;;16.80;83.52;102502.25;5107725;28;20506;-49
2021/07/17 02:33:33;;;;;;;19.75;7.00;;;;;;;16.76;83.97;102502.56;5092578;28;20044;-49
2021/07/17 02:36:00;;;;;;;22.23;7.30;;;;;;;16.75;83.69;102506.16;5093412;28;20060;-52
2021/07/17 02:38:27;;;;;;;18.75;6.65;;;;;;;16.81;83.70;102508.41;5098593;28;20051;-50
2021/07/17 02:40:54;;;;;;;20.58;6.32;;;;;;;16.79;84.16;102513.00;5083084;28;20064;-50
2021/07/17 02:43:21;;;;;;;20.02;7.10;;;;;;;16.80;83.71;102512.03;5053486;28;20039;-51
2021/07/17 02:45:47;;;;;;;18.00;6.75;;;;;;;16.83;84.07;102509.19;5110735;28;20051;-51
2021/07/17 02:48:14;;;;;;;19.95;6.47;;;;;;;16.83;83.72;102504.72;5103094;28;20437;-50
2021/07/17 02:50:41;;;;;;;18.58;6.85;;;;;;;16.81;84.07;102505.75;5104850;28;20085;-51
2021/07/17 02:53:08;;;;;;;26.55;7.43;;;;;;;16.78;84.12;102503.31;5094134;28;20467;-58
2021/07/17 02:55:35;;;;;;;22.63;7.10;;;;;;;16.76;84.18;102500.75;5095956;28;20040;-47
2021/07/17 02:58:03;;;;;;;18.92;6.93;;;;;;;16.75;83.96;102500.84;5094550;28;20044;-49
2021/07/17 03:00:33;;;;;;;19.40;6.70;;;;;;;16.77;84.45;102501.59;5099360;28;20379;-53
2021/07/17 03:03:01;;;;;;;20.35;7.20;;;;;;;16.68;84.67;102503.06;5093227;28;20048;-58
2021/07/17 03:05:30;;;;;;;22.25;7.95;;;;;;;16.65;85.26;102500.59;5101744;28;20040;-57
2021/07/17 03:07:57;;;;;;;20.50;6.88;;;;;;;16.65;84.83;102504.09;5100888;28;20118;-50
2021/07/17 03:10:24;;;;;;;18.17;6.68;;;;;;;16.63;85.06;102503.34;5077460;28;20135;-49
2021/07/17 03:12:51;;;;;;;21.05;7.22;;;;;;;16.64;85.09;102504.22;5104102;28;20055;-52
2021/07/17 03:15:18;;;;;;;16.75;7.57;;;;;;;16.58;85.64;102508.13;5101014;28;20046;-50
2021/07/17 03:17:44;;;;;;;21.52;7.03;;;;;;;16.55;85.52;102511.81;5086523;28;20055;-47
2021/07/17 03:20:12;;;;;;;21.73;7.38;;;;;;;16.56;85.80;102517.97;5100530;28;20040;-51
2021/07/17 03:22:39;;;;;;;19.42;7.40;;;;;;;16.57;86.01;102514.38;5111013;28;20043;-52
2021/07/17 03:25:07;;;;;;;19.42;6.75;;;;;;;16.54;85.69;102511.94;5099167;28;20506;-51
2021/07/17 03:27:34;;;;;;;20.63;8.00;;;;;;;16.48;86.32;102507.00;5114292;28;20109;-53
2021/07/17 03:30:03;;;;;;;22.15;7.00;;;;;;;16.52;86.04;102504.06;5113715;28;20036;-51
2021/07/17 03:32:30;;;;;;;20.45;7.07;;;;;;;16.47;86.24;102507.94;5105238;28;20051;-47
2021/07/17 03:34:57;;;;;;;20.13;6.97;;;;;;;16.46;85.88;102504.44;5107963;28;20048;-50
2021/07/17 03:37:24;;;;;;;25.88;7.38;;;;;;;16.48;86.12;102507.84;5099178;27;20047;-49
2021/07/17 03:39:51;;;;;;;18.65;7.18;;;;;;;16.49;86.30;102509.53;5114978;27;20510;-51
2021/07/17 03:42:18;;;;;;;25.88;7.18;;;;;;;16.44;86.06;102508.13;5107631;28;20047;-50
2021/07/17 03:44:45;;;;;;;20.88;6.85;;;;;;;16.47;86.21;102506.16;5114341;28;20048;-49
2021/07/17 03:47:12;;;;;;;18.20;7.53;;;;;;;16.49;85.96;102504.22;5101414;27;20094;-49
2021/07/17 03:49:39;;;;;;;20.67;6.88;;;;;;;16.46;86.31;102508.91;5113392;28;20092;-52
2021/07/17 03:52:06;;;;;;;23.27;8.10;;;;;;;16.41;86.25;102511.00;5115430;28;20047;-50
2021/07/17 03:54:33;;;;;;;18.20;7.68;;;;;;;16.35;86.59;102512.25;5112713;28;20055;-57
2021/07/17 03:57:00;;;;;;;19.20;6.50;;;;;;;16.33;86.90;102511.47;5102684;28;20044;-52
2021/07/17 03:59:26;;;;;;;21.65;6.93;;;;;;;16.35;86.65;102510.44;5111286;28;20043;-57
2021/07/17 04:01:53;;;;;;;21.38;7.63;;;;;;;16.32;86.45;102502.66;5111054;28;20422;-58
2021/07/17 04:04:21;;;;;;;20.58;6.80;;;;;;;16.35;86.21;102509.59;5102724;28;20075;-58
2021/07/17 04:06:48;;;;;;;19.42;6.85;;;;;;;16.35;86.48;102514.91;5100799;28;20175;-58
2021/07/17 04:09:15;;;;;;;22.50;6.25;;;;;;;16.34;86.23;102505.22;5100205;28;20043;-57
2021/07/17 04:11:41;;;;;;;18.75;6.57;;;;;;;16.28;86.48;102506.47;5096323;28;20113;-57
2021/07/17 04:14:08;;;;;;;19.63;6.85;;;;;;;16.25;86.42;102496.03;5097268;28;20394;-58
2021/07/17 04:16:35;;;;;;;19.17;6.18;;;;;;;16.26;86.67;102503.03;5097409;28;20502;-57
2021/07/17 04:19:02;;;;;;;21.98;7.22;;;;;;;16.19;86.93;102499.91;5092241;28;20120;-57
2021/07/17 04:21:29;;;;;;;18.55;6.13;;;;;;;16.14;87.24;102506.47;5094056;28;20063;-57
2021/07/17 04:23:55;;;;;;;20.77;6.80;;;;;;;16.03;87.81;102515.09;5105160;28;20052;-57
2021/07/17 04:26:22;;;;;;;18.08;6.18;;;;;;;16.12;87.68;102508.38;5102717;28;20390;-56
2021/07/17 04:28:49;;;;;;;17.73;6.40;;;;;;;16.07;87.71;102507.81;5078821;28;20052;-57
2021/07/17 04:31:16;;;;;;;25.05;7.90;;;;;;;16.01;87.98;102520.50;5106915;27;20074;-57
2021/07/17 04:33:43;;;;;;;23.42;6.28;;;;;;;16.00;87.94;102517.94;5098128;28;20436;-57
2021/07/17 04:36:10;;;;;;;18.95;6.43;;;;;;;16.00;88.33;102521.44;5100759;28;20044;-57
2021/07/17 04:38:38;;;;;;;19.38;6.45;;;;;;;15.99;88.71;102519.75;5101924;28;20142;-57
2021/07/17 04:41:05;;;;;;;21.48;6.35;;;;;;;15.97;88.35;102519.00;5103450;28;20051;-57
2021/07/17 04:43:32;;;;;;;17.77;6.13;;;;;;;15.92;88.63;102513.09;5101026;28;20039;-57
2021/07/17 04:45:58;;;;;;;17.30;5.88;;;;;;;15.92;88.94;102506.97;5113318;28;20100;-57
2021/07/17 04:48:25;;;;;;;15.63;6.22;;;;;;;15.94;89.11;102507.69;5108963;28;20051;-57
2021/07/17 04:50:52;;;;;;;17.80;6.18;;;;;;;15.95;88.67;102510.28;5110666;28;20364;-57
2021/07/17 04:53:19;;;;;;;21.48;7.53;;;;;;;15.95;89.14;102512.94;5110166;28;20063;-49
2021/07/17 04:55:46;;;;;;;20.23;7.38;;;;;;;15.93;89.02;102512.16;5103505;28;20052;-50
2021/07/17 04:58:12;;;;;;;23.10;7.60;;;;;;;15.97;88.85;102505.72;5098073;28;20054;-48
2021/07/17 05:00:39;;;;;;;18.83;6.97;;;;;;;16.01;88.82;102506.41;5112341;28;20439;-51
2021/07/17 05:03:06;;;;;;;17.40;5.90;;;;;;;15.99;88.96;102505.63;5105445;28;20054;-48
2021/07/17 05:05:33;;;;;;;24.13;6.30;;;;;;;16.03;89.13;102505.34;5109172;28;20426;-50
2021/07/17 05:08:01;;;;;;;16.88;5.82;;;;;;;16.09;88.61;102511.22;5097450;28;20515;-48
2021/07/17 05:10:28;;;;;;;23.88;6.50;;;;;;;16.15;88.55;102511.69;5076884;28;20398;-48
2021/07/17 05:12:55;;;;;;;17.90;6.75;;;;;;;16.12;89.03;102517.19;5094449;28;20044;-49
2021/07/17 05:15:22;;;;;;;21.23;6.03;;;;;;;16.19;89.05;102512.34;5094597;28;20055;-49
2021/07/17 05:17:48;;;;;;;21.45;6.05;;;;;;;16.20;88.71;102519.38;5094525;28;20044;-49
2021/07/17 05:20:15;;;;;;;16.80;5.57;;;;;;;16.22;89.36;102518.34;5093044;28;20498;-58
2021/07/17 05:22:43;;;;;;;15.40;5.57;;;;;;;16.28;88.92;102517.09;5094415;28;20052;-57
2021/07/17 05:25:10;;;;;;;14.55;5.40;;;;;;;16.32;88.86;102518.59;5093733;28;20039;-57
2021/07/17 05:27:37;;;;;;;13.88;4.88;;;;;;;16.39;88.59;102514.59;5093876;28;20398;-58
2021/07/17 05:30:04;;;;;;;17.55;6.03;;;;;;;16.42;88.27;102523.34;5094071;28;20048;-58
2021/07/17 05:32:31;;;;;;;20.25;6.20;;;;;;;16.49;88.46;102521.97;5090573;28;20059;-57
2021/07/17 05:34:58;;;;;;;16.48;6.03;;;;;;;16.58;88.72;102526.72;5092742;28;20044;-57
2021/07/17 05:37:25;;;;;;;13.63;5.15;;;;;;;16.67;89.06;102528.75;5094088;28;20109;-57
2021/07/17 05:39:52;;;;;;;16.42;5.10;;;;;;;16.79;88.21;102528.94;5094139;28;20044;-49
2021/07/17 05:42:19;;;;;;;15.45;5.20;;;;;;;16.82;88.34;102532.22;5094389;28;20040;-48
2021/07/17 05:44:46;;;;;;;16.25;5.53;;;;;;;16.89;88.24;102535.38;5093444;28;20059;-57
2021/07/17 05:47:13;;;;;;;15.85;5.35;;;;;;;17.01;87.63;102531.06;5088516;28;20047;-51
2021/07/17 05:49:40;;;;;;;14.40;4.32;;;;;;;17.04;87.50;102531.72;5090994;28;20508;-58
2021/07/17 05:52:07;;;;;;;16.98;5.13;;;;;;;17.17;87.27;102537.06;5090704;28;20571;-58
2021/07/17 05:54:34;;;;;;;15.23;4.75;;;;;;;17.20;87.05;102538.66;5090484;28;20044;-58
2021/07/17 05:57:02;;;;;;;17.48;4.78;;;;;;;17.24;86.24;102533.03;5093411;28;20055;-58
2021/07/17 05:59:28;;;;;;;11.20;4.53;;;;;;;17.36;86.49;102530.53;5093679;28;20068;-51
2021/07/17 06:01:55;;;;;;;19.23;4.70;;;;;;;17.49;86.27;102539.38;5093676;28;20433;-58
2021/07/17 06:04:23;;;;;;;15.05;4.60;;;;;;;17.50;85.02;102541.06;5092501;28;20409;-51
2021/07/17 06:06:50;;;;;;;16.80;4.57;;;;;;;17.57;84.70;102549.47;5090108;28;20048;-58
2021/07/17 06:09:17;;;;;;;16.40;4.68;;;;;;;17.60;84.71;102554.59;5091096;28;20058;-58
2021/07/17 06:11:44;;;;;;;15.02;4.90;;;;;;;17.65;84.22;102552.47;5093489;28;20052;-58
2021/07/17 06:14:10;;;;;;;13.43;4.38;;;;;;;17.70;84.21;102553.00;5093707;28;20097;-58
2021/07/17 06:16:37;;;;;;;14.77;4.97;;;;;;;17.74;83.82;102551.84;5093392;28;20048;-58
2021/07/17 06:19:04;;;;;;;14.98;4.45;;;;;;;17.78;83.58;102554.28;5093574;28;20061;-57
2021/07/17 06:21:32;;;;;;;13.23;4.53;;;;;;;17.89;83.26;102565.06;5092481;28;20048;-57
2021/07/17 06:24:00;;;;;;;15.75;5.22;;;;;;;17.87;83.18;102573.16;5090424;28;20458;-58
2021/07/17 06:26:27;;;;;;;12.35;4.60;;;;;;;18.04;82.87;102568.50;5089695;28;20063;-57
2021/07/17 06:28:53;;;;;;;17.60;4.70;;;;;;;18.06;82.60;102566.56;5092226;28;20491;-58
2021/07/17 06:31:20;;;;;;;15.20;5.75;;;;;;;18.17;82.18;102574.63;5093274;28;20425;-49
2021/07/17 06:33:49;;;;;;;16.70;4.55;;;;;;;18.30;81.58;102568.47;5092323;28;20510;-49
2021/07/17 06:36:17;;;;;;;12.13;4.53;;;;;;;18.21;81.24;102578.78;5092097;28;20044;-48
2021/07/17 06:38:44;;;;;;;11.05;4.50;;;;;;;18.31;81.94;102575.47;5092655;28;20056;-52
2021/07/17 06:41:14;;;;;;;12.60;4.32;;;;;;;18.33;81.10;102569.09;5092875;28;20051;-50
2021/07/17 06:43:41;;;;;;;14.40;4.72;;;;;;;18.38;80.84;102574.94;5093455;28;20071;-51
2021/07/17 06:46:08;;;;;;;12.88;4.85;;;;;;;18.45;80.54;102566.50;5088782;28;20048;-52
2021/07/17 06:48:35;;;;;;;14.75;4.80;;;;;;;18.47;80.41;102586.75;5089725;28;20044;-49
2021/07/17 06:51:02;;;;;;;15.00;5.30;;;;;;;18.62;80.31;102583.94;5092004;28;20044;-52
2021/07/17 06:53:36;;;;;;;12.27;4.82;;;;;;;18.73;79.64;102582.22;5093071;28;20064;-47
2021/07/17 06:56:03;;;;;;;13.50;4.22;;;;;;;18.92;78.39;102587.09;5093269;28;20051;-58
2021/07/17 06:58:30;;;;;;;13.55;4.35;;;;;;;19.03;77.97;102591.63;5092501;28;20056;-58
2021/07/17 07:00:57;;;;;;;13.23;4.00;;;;;;;19.25;78.10;102592.69;5092754;28;20168;-58
2021/07/17 07:03:24;;;;;;;14.18;4.70;;;;;;;19.39;77.05;102584.50;5091411;28;20475;-58
2021/07/17 07:05:52;;;;;;;11.50;4.22;;;;;;;19.55;76.39;102594.00;5092714;28;20447;-58
2021/07/17 07:08:18;;;;;;;13.82;5.43;;;;;;;19.60;75.17;102589.16;5091252;28;20109;-58
2021/07/17 07:10:45;;;;;;;13.07;4.45;;;;;;;19.63;75.02;102602.28;5089994;28;20051;-59
2021/07/17 07:13:14;;;;;;;13.07;4.60;;;;;;;19.75;75.20;102601.34;5089768;28;20056;-58
2021/07/17 07:15:40;;;;;;;14.48;4.22;;;;;;;19.96;74.78;102599.84;5091207;28;20491;-50
2021/07/17 07:18:08;;;;;;;11.98;4.10;;;;;;;20.08;73.50;102597.06;5092610;28;20093;-50
2021/07/17 07:20:35;;;;;;;12.60;3.92;;;;;;;20.17;73.03;102605.34;5092060;28;20056;-51
2021/07/17 07:23:02;;;;;;;10.75;3.50;;;;;;;20.14;72.66;102601.06;5089453;28;20051;-51
2021/07/17 07:25:29;;;;;;;13.02;4.10;;;;;;;20.23;72.02;102605.69;5089807;28;20036;-49
2021/07/17 07:27:56;;;;;;;11.93;4.00;;;;;;;20.35;72.83;102601.19;5092627;28;20056;-51
2021/07/17 07:30:24;;;;;;;11.98;4.00;;;;;;;20.34;71.73;102602.19;5092679;28;20541;-49
2021/07/17 07:32:51;;;;;;;15.10;4.05;;;;;;;20.57;72.18;102608.38;5091087;28;20052;-52
2021/07/17 07:35:22;;;;;;;14.15;4.40;;;;;;;20.75;71.35;102605.19;5074221;28;20087;-50
2021/07/17 07:37:50;;;;;;;8.35;3.45;;;;;;;20.91;71.62;102604.78;5090624;28;20052;-51
2021/07/17 07:40:19;;;;;;;10.70;3.38;;;;;;;21.03;70.00;102611.81;5086129;28;20079;-51
2021/07/17 07:42:46;;;;;;;10.98;3.47;;;;;;;21.07;69.57;102604.38;5091189;28;20078;-51
2021/07/17 07:45:13;;;;;;;11.80;2.92;;;;;;;21.26;69.60;102603.72;5092090;28;20114;-52
2021/07/17 07:47:40;;;;;;;10.85;3.60;;;;;;;21.35;68.51;102605.63;5074260;28;20044;-52
2021/07/17 07:50:08;;;;;;;13.00;3.53;;;;;;;21.56;68.24;102608.34;5091424;28;20525;-50
2021/07/17 07:52:35;;;;;;;12.93;3.63;;;;;;;21.63;67.01;102605.16;5092260;28;20048;-50
2021/07/17 07:55:03;;;;;;;9.43;2.97;;;;;;;21.83;67.70;102598.06;5090124;28;20058;-49
2021/07/17 07:57:30;;;;;;;12.32;2.83;;;;;;;21.99;66.11;102606.50;5088783;28;20080;-49
2021/07/17 07:59:57;;;;;;;10.05;2.85;;;;;;;22.18;65.21;102595.00;5091554;28;20060;-51
2021/07/17 08:02:26;;;;;;;10.55;3.22;;;;;;;22.23;63.88;102595.47;5092104;28;20048;-51
2021/07/17 08:04:53;;;;;;;9.27;2.40;;;;;;;22.37;63.41;102596.97;5092208;28;20052;-51
2021/07/17 08:07:20;;;;;;;8.10;2.92;;;;;;;22.46;62.73;102592.63;5092143;28;20044;-51
2021/07/17 08:09:50;;;;;;;6.72;2.30;;;;;;;22.55;62.32;102599.84;5094361;28;20036;-48
2021/07/17 08:12:18;;;;;;;10.15;2.58;;;;;;;22.67;61.10;102602.41;5095531;28;20497;-53
2021/07/17 08:14:44;;;;;;;9.38;2.28;;;;;;;22.90;60.75;102597.66;5095837;28;20048;-50
2021/07/17 08:17:11;;;;;;;6.90;2.20;;;;;;;23.02;59.09;102587.66;5094568;28;20051;-51
2021/07/17 08:19:38;;;;;;;7.82;2.28;;;;;;;23.24;59.36;102597.28;5092342;28;20076;-49
2021/07/17 08:22:05;;;;;;;6.65;2.25;;;;;;;23.34;60.48;102591.91;5092468;28;20097;-49
2021/07/17 08:24:31;;;;;;;8.90;2.28;;;;;;;23.42;59.29;102595.59;5094184;28;20125;-55
2021/07/17 08:26:58;;;;;;;5.78;2.20;;;;;;;23.52;58.32;102589.34;5094049;28;20126;-52
2021/07/17 08:29:25;;;;;;;8.85;2.30;;;;;;;23.61;57.34;102596.56;5095343;28;20056;-52
2021/07/17 08:31:52;;;;;;;10.68;2.35;;;;;;;23.65;57.19;102600.66;5089910;28;20059;-49
2021/07/17 08:34:19;;;;;;;5.65;1.83;;;;;;;23.85;57.10;102597.94;5092171;28;20371;-53
2021/07/17 08:36:46;;;;;;;7.13;1.77;;;;;;;23.87;55.37;102593.25;5095326;28;20514;-52
2021/07/17 08:39:12;;;;;;;8.23;1.98;;;;;;;23.92;56.11;102589.16;5093802;28;20060;-52
2021/07/17 08:41:44;;;;;;;9.15;1.95;;;;;;;24.10;55.72;102591.09;5095256;28;20101;-52
2021/07/17 08:44:11;;;;;;;8.50;2.80;;;;;;;24.24;55.67;102587.06;5094435;28;20052;-49
2021/07/17 08:46:40;;;;;;;7.75;1.77;;;;;;;24.20;53.83;102585.66;5091192;28;20083;-58
2021/07/17 08:49:07;;;;;;;8.20;2.35;;;;;;;24.39;55.27;102585.59;5075383;28;20507;-58
2021/07/17 08:51:34;;;;;;;6.60;1.90;;;;;;;24.41;53.16;102590.81;5095060;28;20085;-59
2021/07/17 08:54:00;;;;;;;8.05;1.83;;;;;;;24.62;54.14;102587.88;5095000;28;20521;-54
2021/07/17 08:56:29;;;;;;;6.32;1.60;;;;;;;24.57;53.12;102596.38;5093690;28;20050;-58
2021/07/17 08:58:56;;;;;;;4.18;1.50;;;;;;;24.77;52.99;102591.75;5094838;28;20106;-59
2021/07/17 09:01:23;;;;;;;6.68;1.70;;;;;;;24.97;51.42;102591.63;5094582;28;20048;-50
2021/07/17 09:03:50;;;;;;;6.63;1.42;;;;;;;24.92;51.26;102591.22;5093520;28;20052;-53
2021/07/17 09:06:17;;;;;;;8.98;2.13;;;;;;;24.91;51.54;102587.69;5076758;28;20047;-50
2021/07/17 09:08:43;;;;;;;6.07;1.52;;;;;;;25.04;52.21;102591.84;5093432;28;20123;-53
2021/07/17 09:11:10;;;;;;;7.22;1.90;;;;;;;25.29;52.98;102587.50;5094711;28;20143;-52
2021/07/17 09:13:37;;;;;;;5.47;1.55;;;;;;;25.41;51.61;102583.59;5093578;28;20048;-59
2021/07/17 09:16:09;;;;;;;6.30;1.65;;;;;;;25.61;50.65;102578.03;5090332;28;20709;-59
2021/07/17 09:18:52;;;;;;;6.75;1.65;;;;;;;25.73;48.59;102586.72;5093330;28;20105;-59
2021/07/17 09:21:33;;;;;;;4.13;1.33;;;;;;;25.58;49.55;102579.19;5093117;28;20044;-52
2021/07/17 09:24:03;;;;;;;6.63;1.83;;;;;;;25.88;49.72;102589.63;5094282;28;20288;-51
2021/07/17 09:26:38;;;;;;;4.78;1.42;;;;;;;26.01;50.29;102581.97;5092578;28;20048;-58
2021/07/17 09:29:12;;;;;;;7.22;1.60;;;;;;;25.84;49.35;102585.56;5091421;28;20052;-58
2021/07/17 09:31:38;;;;;;;6.70;1.50;;;;;;;26.01;50.07;102584.66;5092849;28;20043;-58
2021/07/17 09:34:08;;;;;;;6.03;1.75;;;;;;;26.23;49.05;102577.03;5094159;28;20054;-57
2021/07/17 09:36:49;;;;;;;3.95;1.40;;;;;;;26.48;50.33;102581.53;5094259;28;20048;-58
2021/07/17 09:39:20;;;;;;;6.97;1.67;;;;;;;26.64;48.84;102590.66;5093711;28;20441;-59
2021/07/17 09:41:58;;;;;;;6.32;1.60;;;;;;;26.48;47.89;102589.59;5091471;28;20071;-52
2021/07/17 09:44:28;;;;;;;4.18;1.40;;;;;;;26.59;47.41;102593.03;5091301;28;20066;-50
2021/07/17 09:46:55;;;;;;;5.97;1.35;;;;;;;26.68;46.69;102589.31;5094082;28;20445;-53
2021/07/17 09:49:23;;;;;;;5.63;1.58;;;;;;;26.57;47.49;102585.06;5092523;28;20052;-52
2021/07/17 09:52:13;;;;;;;6.88;1.50;;;;;;;26.70;47.96;102579.25;5093828;28;20090;-51
2021/07/17 09:55:01;;;;;;;6.28;1.52;;;;;;;26.75;47.57;102574.22;5092925;28;20085;-52
2021/07/17 09:57:28;;;;;;;6.38;1.80;;;;;;;27.00;48.17;102563.44;5092479;28;20505;-50
2021/07/17 10:00:08;;;;;;;7.53;1.60;;;;;;;27.11;46.98;102563.09;5092661;28;20127;-52
2021/07/17 10:02:52;;;;;;;3.83;1.40;;;;;;;27.17;46.68;102561.56;5089081;28;20109;-51
2021/07/17 10:05:24;;;;;;;5.88;1.50;;;;;;;27.11;45.05;102568.50;5091453;28;20134;-52
2021/07/17 10:08:10;;;;;;;4.78;1.33;;;;;;;27.12;45.96;102561.25;5092099;28;20052;-51
2021/07/17 10:10:37;;;;;;;3.15;1.20;;;;;;;27.01;46.42;102564.25;5093594;28;20043;-49
2021/07/17 10:13:03;;;;;;;6.15;1.45;;;;;;;27.13;45.87;102552.97;5093315;28;20047;-52
2021/07/17 10:15:31;;;;;;;4.57;1.48;;;;;;;27.50;45.32;102556.19;5093366;28;20039;-51
2021/07/17 10:18:23;;;;;;;3.80;1.27;;;;;;;27.41;45.63;102563.44;5093514;28;20048;-51
2021/07/17 10:20:51;;;;;;;3.22;1.20;;;;;;;27.73;43.80;102555.44;5090899;28;20131;-51
2021/07/17 10:23:19;;;;;;;3.45;1.40;;;;;;;27.82;45.04;102555.25;5090577;28;20040;-51
2021/07/17 10:25:46;;;;;;;6.35;1.50;;;;;;;27.54;44.13;102564.78;5092264;28;20048;-59
2021/07/17 10:28:13;;;;;;;3.33;1.15;;;;;;;27.60;44.47;102561.41;5093755;28;20044;-51
2021/07/17 10:30:40;;;;;;;6.43;1.63;;;;;;;27.65;44.54;102559.00;5093311;28;20658;-49
2021/07/17 10:33:08;;;;;;;4.32;1.27;;;;;;;27.79;44.20;102563.72;5092988;28;20403;-52
2021/07/17 10:35:37;;;;;;;4.28;1.40;;;;;;;27.77;44.64;102564.91;5091847;28;20553;-52
2021/07/17 10:38:06;;;;;;;5.07;1.30;;;;;;;27.87;43.40;102565.56;5092972;28;20052;-51
2021/07/17 10:40:33;;;;;;;2.55;1.02;;;;;;;28.13;44.23;102559.91;5092473;28;20098;-51
2021/07/17 10:43:01;;;;;;;3.92;1.10;;;;;;;28.17;41.87;102563.09;5088816;28;20047;-58
2021/07/17 10:45:44;;;;;;;4.90;1.20;;;;;;;28.36;42.68;102551.00;5090970;28;20097;-59
2021/07/17 10:48:27;;;;;;;4.97;1.27;;;;;;;28.26;42.40;102558.50;5092256;28;20425;-59
2021/07/17 10:50:56;;;;;;;3.17;1.20;;;;;;;28.59;43.15;102561.00;5092417;28;20075;-52
2021/07/17 10:53:43;;;;;;;5.38;1.60;;;;;;;28.46;42.75;102550.78;5088739;28;20564;-50
2021/07/17 10:56:27;;;;;;;4.88;1.30;;;;;;;28.96;43.48;102554.00;5091330;28;20044;-51
2021/07/17 10:58:57;;;;;;;3.97;1.30;;;;;;;28.93;42.02;102557.94;5093050;28;20040;-50
2021/07/17 11:01:25;;;;;;;3.92;1.20;;;;;;;29.06;41.76;102556.47;5092186;28;20043;-50
2021/07/17 11:03:53;;;;;;;3.95;1.13;;;;;;;29.04;40.73;102563.94;5088367;28;20123;-51
2021/07/17 11:06:28;;;;;;;6.05;1.05;;;;;;;29.01;39.86;102559.72;5089714;28;20044;-53
2021/07/17 11:08:57;;;;;;;4.65;1.20;;;;;;;29.29;40.00;102551.06;5092548;28;20071;-51
2021/07/17 11:11:27;;;;;;;4.03;1.20;;;;;;;29.20;40.71;102549.41;5092389;28;20047;-52
2021/07/17 11:13:54;;;;;;;3.95;1.10;;;;;;;29.42;39.90;102547.72;5092441;28;20502;-51
2021/07/17 11:16:48;;;;;;;4.63;1.23;;;;;;;29.60;41.04;102550.91;5092303;28;20044;-51
2021/07/17 11:19:27;;;;;;;3.05;1.10;;;;;;;29.74;40.39;102551.94;5091989;28;20092;-52
2021/07/17 11:21:56;;;;;;;6.93;1.40;;;;;;;29.59;38.66;102557.34;5091209;28;20067;-59
2021/07/17 11:24:25;;;;;;;3.25;1.15;;;;;;;29.32;38.99;102556.94;5091095;28;20055;-49